Time;durP1;ratioP1;P1;durP2;ratioP2;P2;SDS_P1;SDS_P2;PMS_P1;PMS_P2;Temp;Humidity;BMP_temperature;BMP_pressure;BME280_temperature;BME280_humidity;BME280_pressure;Samples;Min_cycle;Max_cycle;Signal;HPM_P1;HPM_P2
2023/01/03 00:01:24;;;;;;;9.90;2.70;;;3.50;99.90;;;;;;4949614;28;20047;-76
2023/01/03 00:03:53;;;;;;;14.50;2.83;;;3.60;99.90;;;;;;4947959;29;20055;-76
2023/01/03 00:06:23;;;;;;;15.07;2.85;;;3.50;99.90;;;;;;4949470;29;20047;-76
2023/01/03 00:08:50;;;;;;;7.85;2.33;;;3.50;99.90;;;;;;4949352;28;20118;-76
2023/01/03 00:14:07;;;;;;;10.43;2.85;;;3.50;99.90;;;;;;4949006;28;20601;-77
2023/01/03 00:16:33;;;;;;;11.20;2.92;;;3.50;99.90;;;;;;4949165;29;20434;-76
2023/01/03 00:18:59;;;;;;;12.23;3.22;;;3.50;99.90;;;;;;4948308;29;20118;-76
2023/01/03 00:21:24;;;;;;;14.43;3.00;;;3.50;99.90;;;;;;4949354;28;20087;-76
2023/01/03 00:23:50;;;;;;;12.30;2.25;;;3.50;99.90;;;;;;4949087;29;20122;-76
2023/01/03 00:26:16;;;;;;;11.00;2.45;;;3.50;99.90;;;;;;4948805;29;20146;-76
2023/01/03 00:28:42;;;;;;;9.10;3.03;;;3.50;99.90;;;;;;4949124;28;20043;-76
2023/01/03 00:31:09;;;;;;;11.07;2.70;;;4.50;99.90;;;;;;4949121;29;20126;-76
2023/01/03 00:33:37;;;;;;;6.22;2.20;;;3.50;99.90;;;;;;4948803;29;20044;-76
2023/01/03 00:36:04;;;;;;;6.05;2.17;;;3.50;99.90;;;;;;4949083;28;20047;-76
2023/01/03 00:38:30;;;;;;;9.07;2.08;;;3.50;99.90;;;;;;4948664;28;20067;-76
2023/01/03 00:41:04;;;;;;;9.10;2.22;;;3.50;99.90;;;;;;4948798;28;20043;-76
2023/01/03 00:43:29;;;;;;;6.75;2.05;;;3.40;99.90;;;;;;4948801;29;20146;-76
2023/01/03 00:45:55;;;;;;;5.18;1.92;;;3.50;99.90;;;;;;4948644;28;20234;-76
2023/01/03 00:48:21;;;;;;;8.40;2.17;;;3.40;99.90;;;;;;4948823;29;20544;-76
2023/01/03 00:50:46;;;;;;;9.45;2.85;;;3.40;99.90;;;;;;4947429;29;20040;-76
2023/01/03 00:53:13;;;;;;;11.45;2.70;;;3.40;99.90;;;;;;4947542;29;20043;-76
2023/01/03 00:55:39;;;;;;;8.88;2.28;;;3.40;99.90;;;;;;4948673;28;20051;-76
2023/01/03 00:58:04;;;;;;;7.25;2.95;;;3.40;99.90;;;;;;4948848;28;20093;-76
2023/01/03 01:00:31;;;;;;;10.90;3.15;;;3.40;99.90;;;;;;4948555;29;20500;-76
2023/01/03 01:02:56;;;;;;;10.40;3.03;;;3.40;99.90;;;;;;4948789;28;20484;-76
2023/01/03 01:05:22;;;;;;;9.63;3.17;;;4.20;99.90;;;;;;4948901;28;20043;-76
2023/01/03 01:07:48;;;;;;;12.15;3.38;;;3.50;99.90;;;;;;4951688;29;20055;-77
2023/01/03 01:10:18;;;;;;;13.10;3.17;;;3.50;99.90;;;;;;4951828;28;20089;-77
2023/01/03 01:12:44;;;;;;;6.65;2.97;;;3.40;99.90;;;;;;4951860;29;20052;-76
2023/01/03 01:15:10;;;;;;;11.10;3.50;;;3.40;99.90;;;;;;4951459;29;20094;-77
2023/01/03 01:17:36;;;;;;;10.20;3.08;;;3.50;99.90;;;;;;4951250;29;20556;-76
2023/01/03 01:20:03;;;;;;;12.55;3.60;;;3.50;99.90;;;;;;4950411;29;20058;-77
2023/01/03 01:22:29;;;;;;;10.65;3.42;;;3.50;99.90;;;;;;4951569;28;20383;-77
2023/01/03 01:24:54;;;;;;;12.20;3.33;;;3.60;99.90;;;;;;4951359;29;20046;-77
2023/01/03 01:27:21;;;;;;;6.60;3.15;;;3.60;99.90;;;;;;4951192;29;20166;-76
2023/01/03 01:29:47;;;;;;;9.52;3.85;;;3.50;99.90;;;;;;4951512;29;20492;-77
2023/01/03 01:32:13;;;;;;;9.80;3.60;;;3.60;99.90;;;;;;4950853;29;20118;-76
2023/01/03 01:34:39;;;;;;;10.18;3.38;;;3.60;99.90;;;;;;4951393;29;20046;-76
2023/01/03 01:37:04;;;;;;;12.10;2.97;;;3.60;99.90;;;;;;4951369;29;20522;-76
2023/01/03 01:39:30;;;;;;;13.27;3.47;;;3.60;99.90;;;;;;4949903;29;20055;-76
2023/01/03 01:44:55;;;;;;;8.60;3.28;;;3.60;99.90;;;;;;4951247;28;20051;-76
2023/01/03 01:47:32;;;;;;;8.90;3.05;;;3.70;99.90;;;;;;4950888;29;20043;-76
2023/01/03 01:50:10;;;;;;;11.75;3.13;;;3.70;99.90;;;;;;4951116;29;20090;-77
2023/01/03 01:52:39;;;;;;;11.43;3.25;;;3.70;99.90;;;;;;4950874;29;20051;-76
2023/01/03 01:55:11;;;;;;;9.38;2.65;;;3.70;99.90;;;;;;4951017;29;20406;-77
2023/01/03 01:57:38;;;;;;;15.02;3.25;;;3.70;99.90;;;;;;4951017;29;20086;-77
2023/01/03 02:00:06;;;;;;;11.65;2.90;;;3.70;99.90;;;;;;4951015;29;20383;-76
2023/01/03 02:02:32;;;;;;;11.80;3.15;;;3.70;99.90;;;;;;4950489;29;20043;-76
2023/01/03 02:04:59;;;;;;;9.85;2.85;;;3.70;99.90;;;;;;4950345;29;20054;-76
2023/01/03 02:07:24;;;;;;;10.07;2.97;;;3.70;99.90;;;;;;4950941;29;20044;-76
2023/01/03 02:09:56;;;;;;;11.77;2.83;;;4.60;99.90;;;;;;4950709;29;20051;-76
2023/01/03 02:15:51;;;;;;;10.10;2.97;;;3.70;99.90;;;;;;4949526;28;20055;-76
2023/01/03 02:18:34;;;;;;;11.15;3.50;;;3.70;99.90;;;;;;4949509;28;20070;-77
2023/01/03 02:21:18;;;;;;;11.80;3.42;;;3.70;99.90;;;;;;4950750;29;20058;-76
2023/01/03 02:24:11;;;;;;;10.43;2.85;;;3.70;99.90;;;;;;4950593;29;20118;-76
2023/01/03 02:27:12;;;;;;;7.57;2.85;;;3.60;99.90;;;;;;4950687;28;20421;-76
2023/01/03 02:30:03;;;;;;;16.15;3.42;;;3.60;99.90;;;;;;4909926;28;20159;-76
2023/01/03 02:33:14;;;;;;;8.50;2.60;;;3.70;99.90;;;;;;4909762;29;20143;-76
2023/01/03 02:35:55;;;;;;;8.25;2.90;;;3.70;99.90;;;;;;4902015;29;20176;-76
2023/01/03 02:38:44;;;;;;;13.05;3.50;;;3.60;99.90;;;;;;4910280;29;20048;-76
2023/01/03 02:41:18;;;;;;;9.07;2.83;;;3.60;99.90;;;;;;4894069;29;20060;-76
2023/01/03 02:43:55;;;;;;;9.57;3.10;;;3.50;99.90;;;;;;4909807;29;20123;-76
2023/01/03 02:46:27;;;;;;;9.20;3.13;;;3.50;99.90;;;;;;4909497;29;20388;-76
2023/01/03 02:49:02;;;;;;;6.25;2.70;;;3.50;99.90;;;;;;4909500;29;20127;-76
2023/01/03 02:51:33;;;;;;;9.52;2.65;;;3.50;99.90;;;;;;4909312;29;20052;-76
2023/01/03 02:54:00;;;;;;;11.73;3.00;;;3.40;99.90;;;;;;4909559;29;20951;-76
2023/01/03 02:56:53;;;;;;;7.72;2.60;;;3.40;99.90;;;;;;4909503;29;20052;-76
2023/01/03 02:59:27;;;;;;;9.35;2.60;;;3.30;99.90;;;;;;4908877;29;20071;-76
2023/01/03 03:01:53;;;;;;;12.10;3.30;;;3.20;99.90;;;;;;4908500;29;20066;-76
2023/01/03 03:04:20;;;;;;;7.88;2.78;;;3.40;99.90;;;;;;4908767;29;20055;-76
2023/01/03 03:07:02;;;;;;;12.80;2.78;;;3.10;99.90;;;;;;4937256;28;20500;-76
2023/01/03 03:09:29;;;;;;;7.18;2.80;;;3.10;99.90;;;;;;4949350;29;20109;-76
2023/01/03 03:14:47;;;;;;;7.78;2.60;;;3.00;99.90;;;;;;4949759;28;20138;-75
2023/01/03 03:17:19;;;;;;;7.97;2.85;;;2.90;99.90;;;;;;4948919;29;20509;-76
2023/01/03 03:25:52;;;;;;;10.45;2.75;;;2.80;99.90;;;;;;4949512;28;20085;-75
2023/01/03 03:28:35;;;;;;;6.75;2.67;;;2.80;99.90;;;;;;4949170;28;20066;-77
2023/01/03 03:31:22;;;;;;;8.18;2.95;;;2.70;99.90;;;;;;4949024;29;20059;-76
2023/01/03 03:34:04;;;;;;;7.97;2.47;;;2.70;99.90;;;;;;4949198;29;20201;-76
2023/01/03 03:36:48;;;;;;;11.27;2.80;;;2.60;99.90;;;;;;4949082;29;20051;-75
2023/01/03 03:45:59;;;;;;;6.53;3.00;;;2.50;99.90;;;;;;4949182;28;20066;-77
2023/01/03 03:48:28;;;;;;;;;;;2.50;99.90;;;;;;4908841;29;20155;-76
2023/01/03 03:51:12;;;;;;;13.18;3.42;;;2.40;99.90;;;;;;4892363;28;20416;-76
2023/01/03 03:53:40;;;;;;;5.97;2.42;;;2.40;99.90;;;;;;4907765;29;20131;-76
2023/01/03 03:56:07;;;;;;;7.50;2.78;;;2.40;99.90;;;;;;4908285;29;20064;-77
2023/01/03 03:58:39;;;;;;;6.32;2.83;;;2.40;99.90;;;;;;4908467;29;20055;-76
2023/01/03 04:01:06;;;;;;;12.02;3.45;;;2.30;99.90;;;;;;4908338;28;20538;-76
2023/01/03 04:03:32;;;;;;;7.43;2.97;;;2.30;99.90;;;;;;4908191;29;20099;-76
2023/01/03 04:06:04;;;;;;;8.65;3.22;;;2.30;99.90;;;;;;4908543;29;20407;-76
2023/01/03 04:08:29;;;;;;;8.63;3.15;;;2.20;99.90;;;;;;4907493;29;20547;-76
2023/01/03 04:11:04;;;;;;;9.68;3.33;;;2.20;99.90;;;;;;4908357;29;20151;-76
2023/01/03 04:13:31;;;;;;;10.52;3.53;;;2.20;99.90;;;;;;4908357;29;20056;-76
2023/01/03 04:15:56;;;;;;;13.30;3.67;;;2.20;99.90;;;;;;4908363;29;20056;-77
2023/01/03 04:18:22;;;;;;;13.77;3.60;;;2.20;99.90;;;;;;4908353;29;20469;-76
2023/01/03 04:20:47;;;;;;;7.97;3.58;;;2.20;99.90;;;;;;4908356;29;20052;-76
2023/01/03 04:23:13;;;;;;;10.70;4.05;;;2.10;99.90;;;;;;4929395;29;20063;-76
2023/01/03 04:25:39;;;;;;;11.13;3.90;;;2.10;99.90;;;;;;4948522;29;20061;-76
2023/01/03 04:28:04;;;;;;;13.80;4.15;;;2.10;99.90;;;;;;4948455;29;20069;-76
2023/01/03 04:30:30;;;;;;;9.95;4.63;;;2.10;99.90;;;;;;4948580;29;20058;-76
2023/01/03 04:32:56;;;;;;;12.40;5.05;;;2.10;99.90;;;;;;4948600;29;20093;-76
2023/01/03 04:35:22;;;;;;;14.60;5.50;;;2.10;99.90;;;;;;4948701;29;20047;-77
2023/01/03 04:37:48;;;;;;;11.40;6.00;;;1.40;99.90;;;;;;4948563;28;20051;-76
2023/01/03 04:40:13;;;;;;;17.63;6.50;;;2.40;99.90;;;;;;4948097;28;20513;-77
2023/01/03 04:45:23;;;;;;;14.93;6.50;;;2.00;99.90;;;;;;4952227;28;20055;-77
2023/01/03 04:47:51;;;;;;;12.95;6.70;;;2.50;99.90;;;;;;4951836;29;20043;-77
2023/01/03 04:50:17;;;;;;;17.60;7.40;;;2.60;99.90;;;;;;4951848;29;20051;-77
2023/01/03 04:52:42;;;;;;;23.10;8.20;;;3.00;99.90;;;;;;4950052;29;20046;-76
2023/01/03 04:55:08;;;;;;;15.32;7.88;;;3.30;99.90;;;;;;4932508;29;20051;-77
2023/01/03 04:57:35;;;;;;;16.55;8.50;;;2.20;99.90;;;;;;4944632;29;20097;-77
2023/01/03 05:00:00;;;;;;;21.92;9.57;;;2.90;99.90;;;;;;4950689;29;20059;-76
2023/01/03 05:02:26;;;;;;;20.63;8.98;;;2.80;99.90;;;;;;4951916;29;20043;-77
2023/01/03 05:04:52;;;;;;;21.67;10.05;;;2.20;99.90;;;;;;4949905;29;20449;-76
2023/01/03 05:07:17;;;;;;;20.77;9.70;;;3.40;99.90;;;;;;4951712;29;20055;-77
2023/01/03 05:09:43;;;;;;;18.05;10.15;;;2.90;99.90;;;;;;4950866;29;20086;-76
2023/01/03 05:12:11;;;;;;;21.55;10.57;;;3.10;99.90;;;;;;4951190;29;20082;-77
2023/01/03 05:14:40;;;;;;;22.35;10.63;;;2.30;99.90;;;;;;4951659;28;20078;-77
2023/01/03 05:17:07;;;;;;;18.50;10.02;;;2.30;99.90;;;;;;4951733;28;20138;-77
2023/01/03 05:19:32;;;;;;;26.08;10.48;;;3.10;99.90;;;;;;4951834;29;20081;-77
2023/01/03 05:27:27;;;;;;;20.97;10.40;;;3.10;99.90;;;;;;4949601;29;20055;-77
2023/01/03 05:29:55;;;;;;;23.58;10.60;;;2.40;99.90;;;;;;4951230;29;20294;-76
2023/01/03 05:32:22;;;;;;;21.23;11.68;;;3.40;99.90;;;;;;4951264;29;20548;-76
2023/01/03 05:34:48;;;;;;;26.48;10.80;;;3.00;99.90;;;;;;4951325;29;20059;-76
2023/01/03 05:37:13;;;;;;;24.90;10.93;;;3.20;99.90;;;;;;4950793;28;20371;-76
2023/01/03 05:39:39;;;;;;;24.13;10.57;;;2.40;99.90;;;;;;4950688;29;20458;-76
2023/01/03 05:42:05;;;;;;;22.67;11.15;;;2.80;99.90;;;;;;4950983;29;20054;-77
2023/01/03 05:44:32;;;;;;;20.77;10.18;;;2.40;99.90;;;;;;4951190;29;20043;-76
2023/01/03 05:47:00;;;;;;;23.35;11.55;;;3.50;99.90;;;;;;4951308;29;20134;-77
2023/01/03 05:49:26;;;;;;;26.50;11.88;;;2.50;99.90;;;;;;4951218;28;20047;-77
2023/01/03 05:51:52;;;;;;;19.38;10.90;;;2.50;99.90;;;;;;4949873;29;20386;-77
2023/01/03 05:54:19;;;;;;;24.05;11.93;;;2.50;99.90;;;;;;4951278;29;20059;-77
2023/01/03 05:56:45;;;;;;;24.30;11.85;;;2.50;99.90;;;;;;4950904;29;20142;-76
2023/01/03 05:59:11;;;;;;;19.75;11.18;;;2.50;99.90;;;;;;4950424;29;20130;-76
2023/01/03 06:01:37;;;;;;;27.80;12.32;;;2.60;99.90;;;;;;4949780;29;20051;-77
2023/01/03 06:04:03;;;;;;;24.58;12.80;;;2.60;99.90;;;;;;4950932;29;20135;-77
2023/01/03 06:06:29;;;;;;;28.75;13.40;;;2.60;99.90;;;;;;4949866;28;20134;-77
2023/01/03 06:08:55;;;;;;;27.67;12.77;;;2.60;99.90;;;;;;4950718;29;20058;-77
2023/01/03 06:11:20;;;;;;;28.60;13.77;;;2.60;99.90;;;;;;4950456;28;20039;-76
2023/01/03 06:13:46;;;;;;;33.35;15.23;;;2.60;99.90;;;;;;4948945;29;20055;-76
2023/01/03 06:18:59;;;;;;;39.15;16.77;;;2.60;99.90;;;;;;4950738;28;20055;-77
2023/01/03 06:21:25;;;;;;;32.47;16.25;;;2.60;99.90;;;;;;4950466;29;20047;-77
2023/01/03 06:23:51;;;;;;;38.90;18.10;;;2.60;99.90;;;;;;4950444;29;20059;-76
2023/01/03 06:26:19;;;;;;;32.85;17.33;;;2.60;99.90;;;;;;4949947;29;20055;-77
2023/01/03 06:28:45;;;;;;;35.42;17.05;;;2.60;99.90;;;;;;4950612;29;20085;-76
2023/01/03 06:31:11;;;;;;;35.47;16.60;;;3.40;99.90;;;;;;4950020;28;20051;-77
2023/01/03 06:33:38;;;;;;;30.55;17.88;;;2.50;99.90;;;;;;4949985;29;20054;-77
2023/01/03 06:36:07;;;;;;;33.75;17.00;;;2.50;99.90;;;;;;4950381;29;20039;-76
2023/01/03 06:38:32;;;;;;;37.97;19.02;;;2.50;99.90;;;;;;4950701;29;20396;-76
2023/01/03 06:40:59;;;;;;;35.60;18.02;;;3.00;99.90;;;;;;4948428;29;20051;-76
2023/01/03 06:43:25;;;;;;;33.30;16.48;;;2.50;99.90;;;;;;4950566;28;20043;-76
2023/01/03 06:54:07;;;;;;;26.70;15.98;;;2.40;99.90;;;;;;4950015;28;20051;-76
2023/01/03 06:56:32;;;;;;;29.98;16.10;;;2.40;99.90;;;;;;4950318;28;20051;-76
2023/01/03 06:58:58;;;;;;;32.13;16.65;;;2.40;99.90;;;;;;4949903;29;20051;-76
2023/01/03 07:01:24;;;;;;;26.58;15.48;;;2.40;99.90;;;;;;4948625;29;20553;-76
2023/01/03 07:03:49;;;;;;;28.25;16.92;;;2.30;99.90;;;;;;4949379;28;20813;-76
2023/01/03 07:06:15;;;;;;;28.08;15.48;;;2.30;99.90;;;;;;4950217;29;20051;-77
2023/01/03 07:08:40;;;;;;;28.33;16.73;;;2.30;99.90;;;;;;4949071;29;20394;-76
2023/01/03 07:11:06;;;;;;;30.65;17.13;;;2.30;99.90;;;;;;4949556;29;20122;-76
2023/01/03 07:16:18;;;;;;;37.22;15.85;;;2.20;99.90;;;;;;4949607;28;20051;-76
2023/01/03 07:18:44;;;;;;;33.45;16.17;;;2.20;99.90;;;;;;4949753;29;20059;-77
2023/01/03 07:21:10;;;;;;;28.13;16.13;;;2.20;99.90;;;;;;4949737;29;20096;-76
2023/01/03 07:23:36;;;;;;;34.95;15.60;;;2.20;99.90;;;;;;4949888;29;20787;-77
2023/01/03 07:26:01;;;;;;;28.70;14.82;;;2.10;99.90;;;;;;4949440;29;20052;-77
2023/01/03 07:28:27;;;;;;;35.83;15.07;;;2.10;99.90;;;;;;4947970;29;20059;-76
2023/01/03 07:31:03;;;;;;;24.95;14.07;;;2.10;99.90;;;;;;4949314;29;20043;-77
2023/01/03 07:33:29;;;;;;;30.35;15.25;;;2.10;99.90;;;;;;4947702;29;20059;-78
2023/01/03 07:36:11;;;;;;;24.55;14.30;;;2.00;99.90;;;;;;4948830;29;20054;-76
2023/01/03 07:38:38;;;;;;;25.35;13.95;;;2.60;99.90;;;;;;4946356;29;20063;-77
2023/01/03 07:41:07;;;;;;;29.27;15.73;;;2.00;99.90;;;;;;4947325;29;20070;-77
2023/01/03 07:43:37;;;;;;;23.60;13.27;;;2.00;99.90;;;;;;4948049;29;20521;-77
2023/01/03 07:46:19;;;;;;;27.42;14.45;;;2.00;99.90;;;;;;4948316;29;20093;-77
2023/01/03 07:48:48;;;;;;;29.40;15.15;;;2.00;99.90;;;;;;4948821;29;20514;-80
2023/01/03 07:51:15;;;;;;;24.48;13.32;;;2.00;99.90;;;;;;4948249;28;20130;-77
2023/01/03 07:53:41;;;;;;;25.23;13.73;;;2.00;99.90;;;;;;4948889;29;20130;-77
2023/01/03 07:56:13;;;;;;;24.15;12.82;;;2.00;99.90;;;;;;4948710;28;20058;-79
2023/01/03 07:58:41;;;;;;;26.17;13.20;;;1.90;99.90;;;;;;4949132;29;20047;-78
2023/01/03 08:01:09;;;;;;;23.98;13.63;;;1.90;99.90;;;;;;4949169;29;20054;-78
2023/01/03 08:03:35;;;;;;;27.00;14.05;;;1.90;99.90;;;;;;4949005;29;20089;-77
2023/01/03 08:06:13;;;;;;;23.55;13.57;;;1.90;99.90;;;;;;4947884;29;20069;-78
2023/01/03 08:08:39;;;;;;;26.95;13.02;;;1.90;99.90;;;;;;4949352;29;20051;-79
2023/01/03 08:13:50;;;;;;;31.75;15.43;;;1.90;99.90;;;;;;4949255;28;20081;-79
2023/01/03 08:16:18;;;;;;;28.45;13.25;;;1.90;99.90;;;;;;4949097;28;20121;-75
2023/01/03 08:18:44;;;;;;;28.77;13.35;;;1.90;99.90;;;;;;4952116;28;20065;-77
2023/01/03 08:21:13;;;;;;;26.40;14.52;;;1.90;99.90;;;;;;4952107;28;20098;-78
2023/01/03 08:23:39;;;;;;;35.13;14.35;;;1.80;99.90;;;;;;4951640;29;20070;-77
2023/01/03 08:26:08;;;;;;;31.73;13.75;;;1.90;99.90;;;;;;4952252;28;20085;-78
2023/01/03 08:28:34;;;;;;;23.90;14.15;;;1.80;99.90;;;;;;4951355;29;20108;-77
2023/01/03 08:31:02;;;;;;;26.52;14.07;;;1.80;99.90;;;;;;4952385;29;20047;-78
2023/01/03 08:33:32;;;;;;;29.73;14.48;;;1.80;99.90;;;;;;4952023;29;20101;-82
2023/01/03 08:36:04;;;;;;;23.67;13.43;;;1.80;99.90;;;;;;4952092;29;20047;-76
2023/01/03 08:38:34;;;;;;;30.42;13.93;;;1.80;99.90;;;;;;4952232;29;20048;-78
2023/01/03 08:41:01;;;;;;;29.65;13.98;;;3.00;99.90;;;;;;4952024;28;20054;-83
2023/01/03 08:43:30;;;;;;;23.30;13.98;;;1.80;99.90;;;;;;4952236;28;20047;-78
2023/01/03 08:45:56;;;;;;;24.15;14.90;;;1.80;99.90;;;;;;4952058;29;20055;-78
2023/01/03 08:48:23;;;;;;;26.20;14.93;;;1.80;99.90;;;;;;4950493;29;20055;-77
2023/01/03 08:50:48;;;;;;;28.23;16.13;;;1.80;99.90;;;;;;4951406;29;20092;-80
2023/01/03 08:53:14;;;;;;;28.50;15.85;;;1.80;99.90;;;;;;4952309;29;20047;-79
2023/01/03 08:55:40;;;;;;;28.17;15.55;;;1.80;99.90;;;;;;4950406;28;20082;-79
2023/01/03 08:58:08;;;;;;;31.15;16.98;;;1.80;99.90;;;;;;4952271;29;20062;-77
2023/01/03 09:00:35;;;;;;;27.42;16.20;;;1.80;99.90;;;;;;4952454;29;20058;-78
2023/01/03 09:03:00;;;;;;;25.30;16.27;;;1.70;99.90;;;;;;4952162;29;20047;-77
2023/01/03 09:05:27;;;;;;;30.50;14.73;;;1.70;99.90;;;;;;4952715;29;20112;-78
2023/01/03 09:07:54;;;;;;;28.83;16.00;;;1.60;99.90;;;;;;4951804;29;20039;-78
2023/01/03 09:10:20;;;;;;;25.33;15.15;;;1.60;99.90;;;;;;4951084;29;20555;-78
2023/01/03 09:12:46;;;;;;;27.98;15.35;;;1.60;99.90;;;;;;4952338;29;20043;-85
2023/01/03 09:15:11;;;;;;;29.38;15.00;;;1.60;99.90;;;;;;4952125;29;20383;-87
2023/01/03 09:17:41;;;;;;;28.55;14.75;;;1.60;99.90;;;;;;4951299;29;20058;-77
2023/01/03 09:20:07;;;;;;;23.50;12.75;;;1.60;99.90;;;;;;4952418;29;20058;-77
2023/01/03 09:22:32;;;;;;;28.77;13.55;;;1.60;99.90;;;;;;4951384;28;20057;-76
2023/01/03 09:24:58;;;;;;;33.40;13.70;;;1.60;99.90;;;;;;4952347;29;20059;-76
2023/01/03 09:27:24;;;;;;;49.53;13.52;;;1.60;99.90;;;;;;4951797;28;20096;-87
2023/01/03 09:29:51;;;;;;;33.95;13.35;;;1.60;99.90;;;;;;4952146;29;20039;-79
2023/01/03 09:32:17;;;;;;;42.35;12.82;;;1.50;99.90;;;;;;4952085;29;20274;-90
2023/01/03 09:34:43;;;;;;;51.90;13.80;;;1.60;99.90;;;;;;4952239;29;20094;-79
2023/01/03 09:37:09;;;;;;;50.13;13.85;;;1.60;99.90;;;;;;4951475;28;20383;-80
2023/01/03 09:39:35;;;;;;;34.97;14.40;;;1.60;99.90;;;;;;4950640;29;20051;-79
2023/01/03 09:44:48;;;;;;;29.02;15.07;;;1.60;99.90;;;;;;4950721;28;20491;-79
2023/01/03 09:47:24;;;;;;;69.05;15.68;;;1.70;99.90;;;;;;4951662;29;20043;-80
2023/01/03 09:49:51;;;;;;;66.85;16.08;;;1.70;99.90;;;;;;4951897;29;20055;-79
2023/01/03 10:04:27;;;;;;;72.90;19.23;;;2.10;99.90;;;;;;4951475;28;20138;-78
2023/01/03 10:07:14;;;;;;;48.17;18.13;;;2.10;99.90;;;;;;4951477;29;20055;-76
2023/01/03 10:10:04;;;;;;;60.22;19.58;;;2.20;99.90;;;;;;4950988;29;20081;-76
2023/01/03 10:13:08;;;;;;;73.63;20.50;;;2.30;99.90;;;;;;4951267;28;20039;-76
2023/01/03 10:15:53;;;;;;;60.95;20.33;;;2.30;99.90;;;;;;4951140;28;20047;-77
2023/01/03 10:18:47;;;;;;;59.97;21.70;;;2.40;99.90;;;;;;4950778;28;20047;-88
2023/01/03 10:21:46;;;;;;;77.10;21.58;;;2.50;99.90;;;;;;4950331;28;20081;-75
2023/01/03 10:24:23;;;;;;;49.33;21.27;;;2.50;99.90;;;;;;4950984;29;20050;-76
2023/01/03 10:27:06;;;;;;;82.35;23.05;;;2.60;99.90;;;;;;4951026;29;20055;-76
2023/01/03 10:29:31;;;;;;;53.60;22.73;;;2.60;99.90;;;;;;4951061;28;20055;-77
2023/01/03 10:32:34;;;;;;;63.15;23.50;;;2.70;99.90;;;;;;4951167;29;20423;-77
2023/01/03 10:35:22;;;;;;;57.88;24.63;;;2.70;99.90;;;;;;4949605;29;20085;-77
2023/01/03 10:37:53;;;;;;;62.38;24.90;;;2.80;99.90;;;;;;4951138;29;20039;-82
2023/01/03 10:40:19;;;;;;;65.40;26.45;;;2.80;99.90;;;;;;4950024;29;20083;-77
2023/01/03 10:42:48;;;;;;;66.70;26.00;;;2.90;99.90;;;;;;4950898;28;20047;-77
2023/01/03 10:45:17;;;;;;;80.93;28.67;;;3.00;99.90;;;;;;4951029;29;20126;-77
2023/01/03 10:47:43;;;;;;;69.07;27.33;;;3.10;99.90;;;;;;4949400;29;20047;-77
2023/01/03 10:50:20;;;;;;;65.63;26.65;;;3.10;99.90;;;;;;4950700;29;20047;-78
2023/01/03 10:52:52;;;;;;;83.32;28.13;;;3.10;99.90;;;;;;4950927;29;20096;-78
2023/01/03 10:55:19;;;;;;;78.20;28.73;;;3.20;99.90;;;;;;4951064;29;20051;-78
2023/01/03 10:57:51;;;;;;;76.82;28.65;;;3.30;99.90;;;;;;4950674;29;20047;-78
2023/01/03 11:00:30;;;;;;;74.68;29.27;;;3.30;99.90;;;;;;4933364;29;20047;-77
2023/01/03 11:03:08;;;;;;;68.60;27.65;;;3.40;99.90;;;;;;4949567;29;20101;-78
2023/01/03 11:05:35;;;;;;;79.75;29.63;;;3.50;99.90;;;;;;4949138;29;20048;-77
2023/01/03 11:08:02;;;;;;;74.75;29.63;;;3.50;99.90;;;;;;4950393;29;20055;-77
2023/01/03 11:10:58;;;;;;;85.75;31.38;;;3.60;99.90;;;;;;4950237;29;20078;-78
2023/01/03 11:13:40;;;;;;;84.10;30.85;;;3.70;99.90;;;;;;4952897;28;20129;-77
2023/01/03 11:16:14;;;;;;;81.97;32.40;;;3.70;99.90;;;;;;4969845;28;20821;-77
2023/01/03 11:18:41;;;;;;;84.50;31.92;;;4.20;99.90;;;;;;4953485;28;20067;-76
2023/01/03 11:21:17;;;;;;;83.10;32.80;;;3.90;99.90;;;;;;4969507;28;20046;-77
2023/01/03 11:23:57;;;;;;;92.68;34.20;;;4.00;99.90;;;;;;4969553;28;20058;-76
2023/01/03 11:26:41;;;;;;;100.55;36.20;;;4.10;99.90;;;;;;4969577;28;20054;-77
2023/01/03 11:29:29;;;;;;;89.68;34.95;;;4.20;99.90;;;;;;4969445;28;20526;-73
2023/01/03 11:32:06;;;;;;;85.25;33.92;;;4.20;99.90;;;;;;4969435;28;20094;-77
2023/01/03 11:34:34;;;;;;;89.18;34.65;;;4.30;99.90;;;;;;4953552;28;20446;-78
2023/01/03 11:37:06;;;;;;;80.80;33.75;;;4.30;99.90;;;;;;4969897;28;20051;-80
2023/01/03 11:40:01;;;;;;;83.82;32.58;;;5.40;99.90;;;;;;4969974;28;20505;-77
2023/01/03 11:42:38;;;;;;;95.18;34.97;;;4.50;99.90;;;;;;4969346;28;20614;-76
2023/01/03 11:45:35;;;;;;;79.50;33.13;;;4.50;99.90;;;;;;4969527;28;20541;-77
2023/01/03 11:48:29;;;;;;;83.80;34.35;;;4.60;99.90;;;;;;4911984;29;20570;-76
2023/01/03 11:51:11;;;;;;;89.97;35.38;;;4.60;99.90;;;;;;4909056;29;20063;-76
2023/01/03 11:54:01;;;;;;;84.22;34.72;;;4.70;99.90;;;;;;4909251;29;20068;-77
2023/01/03 11:56:32;;;;;;;79.45;32.88;;;4.70;99.90;;;;;;4893464;29;20064;-77
2023/01/03 11:59:13;;;;;;;83.57;35.53;;;4.80;99.90;;;;;;4908978;29;20151;-77
2023/01/03 12:02:02;;;;;;;78.30;33.70;;;4.80;99.90;;;;;;4893363;29;20506;-76
2023/01/03 12:04:46;;;;;;;79.18;30.63;;;4.90;99.90;;;;;;4908950;28;20411;-79
2023/01/03 12:07:24;;;;;;;75.40;31.58;;;5.00;99.90;;;;;;4908695;29;20063;-75
2023/01/03 12:09:59;;;;;;;76.53;32.35;;;5.00;99.90;;;;;;4908804;29;20498;-76
2023/01/03 12:12:49;;;;;;;71.15;32.70;;;5.10;99.90;;;;;;4908972;29;20052;-77
2023/01/03 12:15:21;;;;;;;75.40;30.92;;;5.10;99.90;;;;;;4908645;28;20466;-76
2023/01/03 12:17:58;;;;;;;79.45;32.33;;;5.20;99.90;;;;;;4909016;29;20653;-76
2023/01/03 12:20:36;;;;;;;67.88;30.48;;;6.10;99.90;;;;;;4909026;28;20052;-76
2023/01/03 12:23:14;;;;;;;72.95;30.33;;;5.60;99.90;;;;;;4892511;29;20090;-78
2023/01/03 12:25:43;;;;;;;71.70;29.60;;;5.30;99.90;;;;;;4936475;29;20134;-74
2023/01/03 12:28:09;;;;;;;83.25;31.10;;;5.40;99.90;;;;;;4948890;29;20507;-75
2023/01/03 12:30:41;;;;;;;70.70;29.38;;;5.40;99.90;;;;;;4948720;29;20055;-74
2023/01/03 12:33:15;;;;;;;69.78;30.30;;;5.40;99.90;;;;;;4947199;28;20060;-74
2023/01/03 12:35:57;;;;;;;75.60;28.95;;;5.40;99.90;;;;;;4947296;28;20070;-75
2023/01/03 12:38:29;;;;;;;69.65;29.48;;;5.50;99.90;;;;;;4948748;28;20057;-74
2023/01/03 12:41:24;;;;;;;57.65;27.50;;;5.50;99.90;;;;;;4948741;28;20055;-75
2023/01/03 12:44:13;;;;;;;65.53;29.33;;;5.50;99.90;;;;;;4949383;29;20509;-75
2023/01/03 12:46:46;;;;;;;64.97;25.67;;;5.60;99.90;;;;;;4948376;28;20051;-75
2023/01/03 12:49:24;;;;;;;58.00;26.25;;;6.40;99.90;;;;;;4948853;28;20028;-74
2023/01/03 12:51:50;;;;;;;63.33;26.15;;;5.60;99.90;;;;;;4948459;29;20043;-75
2023/01/03 12:54:36;;;;;;;63.55;26.67;;;5.70;99.90;;;;;;4948494;28;20089;-74
2023/01/03 12:57:41;;;;;;;50.47;23.90;;;5.70;99.90;;;;;;4949018;29;20411;-74
2023/01/03 13:00:31;;;;;;;52.95;22.85;;;5.80;99.90;;;;;;4948356;28;20066;-76
2023/01/03 13:03:13;;;;;;;45.38;22.67;;;5.80;99.90;;;;;;4951233;29;20051;-79
2023/01/03 13:05:52;;;;;;;54.10;22.45;;;5.80;99.90;;;;;;4952582;28;20109;-82
2023/01/03 13:08:32;;;;;;;51.70;22.05;;;5.90;99.90;;;;;;4950776;29;20151;-77
2023/01/03 13:11:02;;;;;;;48.08;21.40;;;5.90;99.90;;;;;;4952014;29;20059;-79
2023/01/03 13:13:29;;;;;;;46.58;20.00;;;5.90;99.90;;;;;;4950850;28;20101;-76
2023/01/03 13:15:55;;;;;;;43.00;19.73;;;6.00;99.90;;;;;;4950313;28;20069;-76
2023/01/03 13:18:20;;;;;;;39.58;19.30;;;6.00;99.90;;;;;;4952333;28;20376;-77
2023/01/03 13:20:53;;;;;;;37.15;18.77;;;6.00;99.90;;;;;;4950796;29;20055;-77
2023/01/03 13:23:54;;;;;;;36.25;18.58;;;6.00;99.90;;;;;;4951957;28;20043;-76
2023/01/03 13:26:26;;;;;;;41.22;18.38;;;6.00;99.90;;;;;;4951408;29;20394;-76
2023/01/03 13:29:12;;;;;;;38.70;18.58;;;6.10;99.90;;;;;;4950895;29;20055;-76
2023/01/03 13:31:39;;;;;;;35.05;18.30;;;6.10;99.90;;;;;;4951342;29;20074;-76
2023/01/03 13:34:30;;;;;;;31.48;17.95;;;6.20;99.90;;;;;;4951836;29;20054;-77
2023/01/03 13:37:04;;;;;;;45.47;19.13;;;6.10;99.90;;;;;;4952033;29;20047;-78
2023/01/03 13:39:39;;;;;;;38.97;18.60;;;6.20;99.90;;;;;;4952003;29;20049;-77
2023/01/03 13:42:05;;;;;;;39.10;18.83;;;6.70;99.90;;;;;;4951900;28;20490;-76
2023/01/03 13:44:30;;;;;;;40.13;18.27;;;6.20;99.90;;;;;;4951267;29;20069;-78
2023/01/03 13:46:58;;;;;;;36.20;17.17;;;6.30;99.90;;;;;;4951947;29;20062;-80
2023/01/03 13:49:26;;;;;;;33.70;17.55;;;6.70;99.90;;;;;;4951336;29;20049;-79
2023/01/03 13:51:54;;;;;;;35.80;18.73;;;6.30;99.90;;;;;;4951727;29;20054;-77
2023/01/03 13:54:19;;;;;;;34.80;17.50;;;6.30;99.90;;;;;;4950387;29;20086;-77
2023/01/03 13:56:45;;;;;;;36.53;17.23;;;6.30;99.90;;;;;;4951605;29;20071;-79
2023/01/03 13:59:13;;;;;;;31.52;16.13;;;7.00;99.90;;;;;;4951531;29;20058;-79
2023/01/03 14:01:54;;;;;;;32.42;17.23;;;6.30;99.90;;;;;;4950428;29;20051;-77
2023/01/03 14:04:49;;;;;;;36.08;17.00;;;6.30;99.90;;;;;;4950845;28;20052;-78
2023/01/03 14:07:37;;;;;;;33.05;16.23;;;6.40;99.90;;;;;;4951796;29;20126;-78
2023/01/03 14:10:22;;;;;;;32.95;17.52;;;6.40;99.90;;;;;;4950859;29;20039;-77